CheckWX is a tool to help pilots better visualize weather data.  It is not intended as a substitute for an official pre-flight weather briefing.

05:10:47 UTC

KMTW TAF
Manitowoc County Airport
Manitowoc, Wisconsin, USA
KMTW 190210Z 1902/1924 28020G31KT P6SM -SHSN SCT018 BKN035 WS019/32035KT TEMPO 1902/1906 4SM -SHSN BLSN BKN018 FM190600 28018G29KT P6SM -SHSN OVC024 WS018/31040KT FM191000 29018G28KT P6SM -SHSN BKN022 WS020/34035KT FM191200 32016G22KT P6SM -SHSN BKN022 FM192100 34013G18KT P6SM -SHSN BKN030 FM192200 33010G17KT P6SM -SHSN BKN040

Jan-19@
02:00 UTC

Jan-19 @ 02:00 UTC

Jan-19@
06:00 UTC

Jan-19 @ 06:00 UTC

KMTW 190210Z 1902/1924 28020G31KT P6SM -SHSN SCT018 BKN035 WS019/32035KT
Wind
  • 280° at 20 KTS
  • {Gusting to 31 KTS
Conditions
Light Snow
Cloud Levels
  • Scattered at 1,800' AGL
  • Broken at 3,500' AGL

Jan-19@
02:00 UTC

Jan-19 @ 02:00 UTC

Jan-19@
06:00 UTC

Jan-19 @ 06:00 UTC

TEMPO 1902/1906 4SM -SHSN BLSN BKN018

Temporary

Temporary Changes expected for less than half the time period

Conditions
Light Snow, Blowing Snow
Cloud Levels
  • Broken at 1,800' AGL

Jan-19@
06:00 UTC

Jan-19 @ 06:00 UTC

Jan-19@
10:00 UTC

Jan-19 @ 10:00 UTC

FM190600 28018G29KT P6SM -SHSN OVC024 WS018/31040KT

From

From Standard forecast or significant change

Wind
  • 280° at 18 KTS
  • {Gusting to 29 KTS
Conditions
Light Snow
Cloud Levels
  • Overcast at 2,400' AGL

Jan-19@
10:00 UTC

Jan-19 @ 10:00 UTC

Jan-19@
12:00 UTC

Jan-19 @ 12:00 UTC

FM191000 29018G28KT P6SM -SHSN BKN022 WS020/34035KT

From

From Standard forecast or significant change

Wind
  • 290° at 18 KTS
  • {Gusting to 28 KTS
Conditions
Light Snow
Cloud Levels
  • Broken at 2,200' AGL

Jan-19@
12:00 UTC

Jan-19 @ 12:00 UTC

Jan-19@
21:00 UTC

Jan-19 @ 21:00 UTC

FM191200 32016G22KT P6SM -SHSN BKN022

From

From Standard forecast or significant change

Wind
  • 320° at 16 KTS
  • {Gusting to 22 KTS
Conditions
Light Snow
Cloud Levels
  • Broken at 2,200' AGL

Jan-19@
21:00 UTC

Jan-19 @ 21:00 UTC

Jan-19@
22:00 UTC

Jan-19 @ 22:00 UTC

FM192100 34013G18KT P6SM -SHSN BKN030

From

From Standard forecast or significant change

Wind
  • 340° at 13 KTS
  • {Gusting to 18 KTS
Conditions
Light Snow
Cloud Levels
  • Broken at 3,000' AGL

Jan-19@
22:00 UTC

Jan-19 @ 22:00 UTC

Jan-20@
00:00 UTC

Jan-20 @ 00:00 UTC

FM192200 33010G17KT P6SM -SHSN BKN040

From

From Standard forecast or significant change

Wind
  • 330° at 10 KTS
  • {Gusting to 17 KTS
Conditions
Light Snow
Cloud Levels
  • Broken at 4,000' AGL